sensor_id;sensor_type;location;lat;lon;timestamp;pressure;altitude;pressure_sealevel;temperature;humidity
56558;BME280;43358;50.356;12.456;2022-12-18T00:00:29;96808;;;-12.1;88.5
56558;BME280;43358;50.356;12.456;2022-12-18T00:01:32;96805;;;-12.1;88.4
56558;BME280;43358;50.356;12.456;2022-12-18T00:02:34;96803;;;-12.2;88.1
56558;BME280;43358;50.356;12.456;2022-12-18T00:03:36;96806;;;-12.2;87.9
56558;BME280;43358;50.356;12.456;2022-12-18T00:04:38;96805;;;-12.2;87.8
56558;BME280;43358;50.356;12.456;2022-12-18T00:05:49;96805;;;-12.3;87.8
56558;BME280;43358;50.356;12.456;2022-12-18T00:06:44;96805;;;-12.3;88.1
56558;BME280;43358;50.356;12.456;2022-12-18T00:08:48;96804;;;-12.3;88
56558;BME280;43358;50.356;12.456;2022-12-18T00:09:50;96805;;;-12.4;88
56558;BME280;43358;50.356;12.456;2022-12-18T00:10:52;96806;;;-12.4;88
56558;BME280;43358;50.356;12.456;2022-12-18T00:11:54;96808;;;-12.4;88
56558;BME280;43358;50.356;12.456;2022-12-18T00:12:56;96809;;;-12.5;88.1
56558;BME280;43358;50.356;12.456;2022-12-18T00:13:58;96806;;;-12.4;88.2
56558;BME280;43358;50.356;12.456;2022-12-18T00:15:00;96807;;;-12.5;87.9
56558;BME280;43358;50.356;12.456;2022-12-18T00:16:02;96808;;;-12.5;87.9
56558;BME280;43358;50.356;12.456;2022-12-18T00:17:04;96809;;;-12.5;88
56558;BME280;43358;50.356;12.456;2022-12-18T00:18:06;96809;;;-12.5;88.3
56558;BME280;43358;50.356;12.456;2022-12-18T00:19:08;96811;;;-12.5;88.3
56558;BME280;43358;50.356;12.456;2022-12-18T00:20:10;96807;;;-12.6;88.4
56558;BME280;43358;50.356;12.456;2022-12-18T00:21:12;96805;;;-12.6;88.3
56558;BME280;43358;50.356;12.456;2022-12-18T00:22:18;96806;;;-12.6;88.4
56558;BME280;43358;50.356;12.456;2022-12-18T00:23:17;96809;;;-12.6;88.4
56558;BME280;43358;50.356;12.456;2022-12-18T00:24:19;96810;;;-12.6;88.3
56558;BME280;43358;50.356;12.456;2022-12-18T00:25:21;96813;;;-12.6;88.4
56558;BME280;43358;50.356;12.456;2022-12-18T00:26:23;96817;;;-12.6;88.3
56558;BME280;43358;50.356;12.456;2022-12-18T00:27:26;96813;;;-12.6;88.3
56558;BME280;43358;50.356;12.456;2022-12-18T00:28:28;96814;;;-12.7;88.3
56558;BME280;43358;50.356;12.456;2022-12-18T00:29:30;96815;;;-12.7;88.3
56558;BME280;43358;50.356;12.456;2022-12-18T00:30:33;96815;;;-12.7;88.3
56558;BME280;43358;50.356;12.456;2022-12-18T00:31:35;96816;;;-12.7;88.2
56558;BME280;43358;50.356;12.456;2022-12-18T00:32:38;96818;;;-12.7;88.1
56558;BME280;43358;50.356;12.456;2022-12-18T00:33:40;96818;;;-12.7;87.9
56558;BME280;43358;50.356;12.456;2022-12-18T00:34:43;96820;;;-12.7;88.1
56558;BME280;43358;50.356;12.456;2022-12-18T00:35:45;96822;;;-12.7;88.3
56558;BME280;43358;50.356;12.456;2022-12-18T00:36:47;96824;;;-12.7;88.3
56558;BME280;43358;50.356;12.456;2022-12-18T00:37:49;96828;;;-12.7;88.3
56558;BME280;43358;50.356;12.456;2022-12-18T00:38:51;96824;;;-12.7;88.4
56558;BME280;43358;50.356;12.456;2022-12-18T00:39:53;96827;;;-12.7;88.9
56558;BME280;43358;50.356;12.456;2022-12-18T00:40:55;96828;;;-12.6;89.1
56558;BME280;43358;50.356;12.456;2022-12-18T00:41:57;96829;;;-12.6;89
56558;BME280;43358;50.356;12.456;2022-12-18T00:42:59;96827;;;-12.5;88.8
56558;BME280;43358;50.356;12.456;2022-12-18T00:44:03;96831;;;-12.5;88.1
56558;BME280;43358;50.356;12.456;2022-12-18T00:45:03;96831;;;-12.5;87.7
56558;BME280;43358;50.356;12.456;2022-12-18T00:46:05;96834;;;-12.6;87.4
56558;BME280;43358;50.356;12.456;2022-12-18T00:47:08;96832;;;-12.7;87.2
56558;BME280;43358;50.356;12.456;2022-12-18T00:48:10;96836;;;-12.7;87.3
56558;BME280;43358;50.356;12.456;2022-12-18T00:49:12;96831;;;-12.7;87.4
56558;BME280;43358;50.356;12.456;2022-12-18T00:50:19;96833;;;-12.7;87.6
56558;BME280;43358;50.356;12.456;2022-12-18T00:51:16;96828;;;-12.8;87.7
56558;BME280;43358;50.356;12.456;2022-12-18T00:52:18;96831;;;-12.8;88.1
56558;BME280;43358;50.356;12.456;2022-12-18T00:54:36;96836;;;-12.7;88.2
56558;BME280;43358;50.356;12.456;2022-12-18T00:55:25;96836;;;-12.7;88.1
56558;BME280;43358;50.356;12.456;2022-12-18T00:56:27;96836;;;-12.8;88
56558;BME280;43358;50.356;12.456;2022-12-18T00:57:30;96835;;;-12.8;87.8
56558;BME280;43358;50.356;12.456;2022-12-18T00:58:32;96834;;;-12.9;87.8
56558;BME280;43358;50.356;12.456;2022-12-18T00:59:34;96831;;;-12.9;87.9
56558;BME280;43358;50.356;12.456;2022-12-18T01:00:36;96837;;;-12.9;88
56558;BME280;43358;50.356;12.456;2022-12-18T01:01:38;96836;;;-12.9;88.1
56558;BME280;43358;50.356;12.456;2022-12-18T01:02:40;96839;;;-12.9;88.2
56558;BME280;43358;50.356;12.456;2022-12-18T01:03:42;96840;;;-12.9;88.3
56558;BME280;43358;50.356;12.456;2022-12-18T01:04:44;96840;;;-12.9;88.4
56558;BME280;43358;50.356;12.456;2022-12-18T01:05:46;96840;;;-12.9;88.5
56558;BME280;43358;50.356;12.456;2022-12-18T01:06:48;96840;;;-12.9;88.5
56558;BME280;43358;50.356;12.456;2022-12-18T01:07:50;96841;;;-13;88.5
56558;BME280;43358;50.356;12.456;2022-12-18T01:08:53;96841;;;-13;88.5
56558;BME280;43358;50.356;12.456;2022-12-18T01:09:55;96840;;;-13;88.6
56558;BME280;43358;50.356;12.456;2022-12-18T01:10:57;96845;;;-12.9;88.8
56558;BME280;43358;50.356;12.456;2022-12-18T01:11:59;96843;;;-12.8;89
56558;BME280;43358;50.356;12.456;2022-12-18T01:13:06;96839;;;-12.7;88.5
56558;BME280;43358;50.356;12.456;2022-12-18T01:14:08;96837;;;-12.7;87.8
56558;BME280;43358;50.356;12.456;2022-12-18T01:15:05;96838;;;-12.6;87.4
56558;BME280;43358;50.356;12.456;2022-12-18T01:16:07;96834;;;-12.7;87.1
56558;BME280;43358;50.356;12.456;2022-12-18T01:17:09;96831;;;-12.7;87.1
56558;BME280;43358;50.356;12.456;2022-12-18T01:18:11;96833;;;-12.8;87.1
56558;BME280;43358;50.356;12.456;2022-12-18T01:19:14;96838;;;-12.8;87.1
56558;BME280;43358;50.356;12.456;2022-12-18T01:20:16;96838;;;-12.8;87.2
56558;BME280;43358;50.356;12.456;2022-12-18T01:21:18;96843;;;-12.8;87.6
56558;BME280;43358;50.356;12.456;2022-12-18T01:22:20;96844;;;-12.8;88
56558;BME280;43358;50.356;12.456;2022-12-18T01:23:22;96845;;;-12.8;88.1
56558;BME280;43358;50.356;12.456;2022-12-18T01:24:24;96845;;;-12.7;88.3
56558;BME280;43358;50.356;12.456;2022-12-18T01:25:26;96841;;;-12.7;87.8
56558;BME280;43358;50.356;12.456;2022-12-18T01:26:28;96847;;;-12.7;87.4
56558;BME280;43358;50.356;12.456;2022-12-18T01:27:30;96846;;;-12.8;87.1
56558;BME280;43358;50.356;12.456;2022-12-18T01:28:32;96849;;;-12.8;87.1
56558;BME280;43358;50.356;12.456;2022-12-18T01:29:35;96852;;;-12.9;86.7
56558;BME280;43358;50.356;12.456;2022-12-18T01:30:38;96856;;;-13;86.9
56558;BME280;43358;50.356;12.456;2022-12-18T01:31:42;96858;;;-13;87.2
56558;BME280;43358;50.356;12.456;2022-12-18T01:32:44;96860;;;-13.1;87.3
56558;BME280;43358;50.356;12.456;2022-12-18T01:33:48;96864;;;-13.1;87.3
56558;BME280;43358;50.356;12.456;2022-12-18T01:34:49;96867;;;-13.2;87.6
56558;BME280;43358;50.356;12.456;2022-12-18T01:35:51;96870;;;-13.2;87.7
56558;BME280;43358;50.356;12.456;2022-12-18T01:36:53;96876;;;-13.2;87.9
56558;BME280;43358;50.356;12.456;2022-12-18T01:37:55;96872;;;-13.2;88
56558;BME280;43358;50.356;12.456;2022-12-18T01:38:58;96879;;;-13.2;88
56558;BME280;43358;50.356;12.456;2022-12-18T01:39:59;96878;;;-13.2;88.1
56558;BME280;43358;50.356;12.456;2022-12-18T01:41:01;96873;;;-13.2;88.3
56558;BME280;43358;50.356;12.456;2022-12-18T01:42:08;96872;;;-13.2;88.4
56558;BME280;43358;50.356;12.456;2022-12-18T01:43:08;96874;;;-13.2;88.4
56558;BME280;43358;50.356;12.456;2022-12-18T01:45:22;96874;;;-13.2;88.3
56558;BME280;43358;50.356;12.456;2022-12-18T01:45:23;96868;;;-13.2;88.2
56558;BME280;43358;50.356;12.456;2022-12-18T01:46:12;96873;;;-13.2;88.3
56558;BME280;43358;50.356;12.456;2022-12-18T01:47:14;96874;;;-13.2;88.5
56558;BME280;43358;50.356;12.456;2022-12-18T01:48:16;96873;;;-13.2;88.4
56558;BME280;43358;50.356;12.456;2022-12-18T01:49:18;96875;;;-13.2;88.1
56558;BME280;43358;50.356;12.456;2022-12-18T01:50:20;96875;;;-13.2;88
56558;BME280;43358;50.356;12.456;2022-12-18T01:51:22;96876;;;-13.2;88.2
56558;BME280;43358;50.356;12.456;2022-12-18T01:52:24;96875;;;-13.2;88.2
56558;BME280;43358;50.356;12.456;2022-12-18T01:53:27;96871;;;-13.2;88.2
56558;BME280;43358;50.356;12.456;2022-12-18T01:54:29;96877;;;-13.2;88.2
56558;BME280;43358;50.356;12.456;2022-12-18T01:55:32;96873;;;-13.2;88.1
56558;BME280;43358;50.356;12.456;2022-12-18T01:56:33;96871;;;-13.2;87.7
56558;BME280;43358;50.356;12.456;2022-12-18T01:57:35;96871;;;-13.2;87.6
56558;BME280;43358;50.356;12.456;2022-12-18T01:58:39;96872;;;-13.3;87.4
56558;BME280;43358;50.356;12.456;2022-12-18T01:59:42;96872;;;-13.3;87.5
56558;BME280;43358;50.356;12.456;2022-12-18T02:00:44;96871;;;-13.3;87.7
56558;BME280;43358;50.356;12.456;2022-12-18T02:01:46;96873;;;-13.3;88.1
56558;BME280;43358;50.356;12.456;2022-12-18T02:02:48;96873;;;-13.2;88.1
56558;BME280;43358;50.356;12.456;2022-12-18T02:03:50;96873;;;-13.2;88
56558;BME280;43358;50.356;12.456;2022-12-18T02:04:52;96876;;;-13.2;87.9
56558;BME280;43358;50.356;12.456;2022-12-18T02:05:55;96875;;;-13.2;88
56558;BME280;43358;50.356;12.456;2022-12-18T02:06:57;96873;;;-13.2;88.1
56558;BME280;43358;50.356;12.456;2022-12-18T02:08:00;96871;;;-13.3;88.1
56558;BME280;43358;50.356;12.456;2022-12-18T02:09:02;96872;;;-13.3;88
56558;BME280;43358;50.356;12.456;2022-12-18T02:10:03;96873;;;-13.3;87.7
56558;BME280;43358;50.356;12.456;2022-12-18T02:12:08;96873;;;-13.2;88.3
56558;BME280;43358;50.356;12.456;2022-12-18T02:13:10;96871;;;-13.2;88.2
56558;BME280;43358;50.356;12.456;2022-12-18T02:14:14;96869;;;-13.2;88.2
56558;BME280;43358;50.356;12.456;2022-12-18T02:15:14;96870;;;-13.2;88.2
56558;BME280;43358;50.356;12.456;2022-12-18T02:16:17;96876;;;-13.2;88.5
56558;BME280;43358;50.356;12.456;2022-12-18T02:17:18;96877;;;-13.1;88.4
56558;BME280;43358;50.356;12.456;2022-12-18T02:18:19;96877;;;-13.1;88.1
56558;BME280;43358;50.356;12.456;2022-12-18T02:19:28;96880;;;-13;87.9
56558;BME280;43358;50.356;12.456;2022-12-18T02:20:24;96883;;;-13.1;87.5
56558;BME280;43358;50.356;12.456;2022-12-18T02:21:27;96884;;;-13.2;87.3
56558;BME280;43358;50.356;12.456;2022-12-18T02:22:29;96883;;;-13.2;87.4
56558;BME280;43358;50.356;12.456;2022-12-18T02:23:36;96885;;;-13.2;87.4
56558;BME280;43358;50.356;12.456;2022-12-18T02:24:33;96881;;;-13.3;87.3
56558;BME280;43358;50.356;12.456;2022-12-18T02:25:39;96882;;;-13.3;87.1
56558;BME280;43358;50.356;12.456;2022-12-18T02:27:06;96878;;;-13.4;86.9
56558;BME280;43358;50.356;12.456;2022-12-18T02:28:06;96876;;;-13.4;87.2
56558;BME280;43358;50.356;12.456;2022-12-18T02:29:07;96870;;;-13.3;87.6
56558;BME280;43358;50.356;12.456;2022-12-18T02:30:06;96869;;;-13.3;87.7
56558;BME280;43358;50.356;12.456;2022-12-18T02:31:06;96870;;;-13.3;87.6
56558;BME280;43358;50.356;12.456;2022-12-18T02:32:08;96875;;;-13.3;87.4
56558;BME280;43358;50.356;12.456;2022-12-18T02:33:06;96872;;;-13.3;87.5
56558;BME280;43358;50.356;12.456;2022-12-18T02:34:06;96872;;;-13.4;87.4
56558;BME280;43358;50.356;12.456;2022-12-18T02:35:06;96870;;;-13.4;87.6
56558;BME280;43358;50.356;12.456;2022-12-18T02:36:06;96871;;;-13.4;87.7
56558;BME280;43358;50.356;12.456;2022-12-18T02:37:10;96871;;;-13.5;87.5
56558;BME280;43358;50.356;12.456;2022-12-18T02:38:06;96871;;;-13.5;87.2
56558;BME280;43358;50.356;12.456;2022-12-18T02:39:06;96873;;;-13.5;87.2
56558;BME280;43358;50.356;12.456;2022-12-18T02:40:06;96872;;;-13.5;87.2
56558;BME280;43358;50.356;12.456;2022-12-18T02:41:06;96880;;;-13.6;87.4
56558;BME280;43358;50.356;12.456;2022-12-18T02:42:08;96877;;;-13.6;87.7
56558;BME280;43358;50.356;12.456;2022-12-18T02:43:10;96881;;;-13.6;87.9
56558;BME280;43358;50.356;12.456;2022-12-18T02:44:12;96884;;;-13.6;88.1
56558;BME280;43358;50.356;12.456;2022-12-18T02:45:14;96883;;;-13.6;88.3
56558;BME280;43358;50.356;12.456;2022-12-18T02:46:25;96882;;;-13.6;88.4
56558;BME280;43358;50.356;12.456;2022-12-18T02:47:18;96881;;;-13.6;88.3
56558;BME280;43358;50.356;12.456;2022-12-18T02:48:21;96879;;;-13.6;88.1
56558;BME280;43358;50.356;12.456;2022-12-18T02:49:26;96876;;;-13.6;87.7
56558;BME280;43358;50.356;12.456;2022-12-18T02:50:26;96875;;;-13.6;87.6
56558;BME280;43358;50.356;12.456;2022-12-18T02:51:27;96878;;;-13.6;87.6
56558;BME280;43358;50.356;12.456;2022-12-18T02:52:30;96878;;;-13.6;88
56558;BME280;43358;50.356;12.456;2022-12-18T02:53:33;96873;;;-13.6;88.6
56558;BME280;43358;50.356;12.456;2022-12-18T02:54:36;96876;;;-13.5;88.7
56558;BME280;43358;50.356;12.456;2022-12-18T02:55:37;96879;;;-13.5;88.3
56558;BME280;43358;50.356;12.456;2022-12-18T02:58:45;96879;;;-13.6;87.6
56558;BME280;43358;50.356;12.456;2022-12-18T02:59:48;96879;;;-13.6;87.5
56558;BME280;43358;50.356;12.456;2022-12-18T03:00:48;96877;;;-13.6;87.6
56558;BME280;43358;50.356;12.456;2022-12-18T03:01:51;96878;;;-13.6;87.6
56558;BME280;43358;50.356;12.456;2022-12-18T03:02:53;96877;;;-13.7;87.6
56558;BME280;43358;50.356;12.456;2022-12-18T03:03:55;96877;;;-13.7;87.6
56558;BME280;43358;50.356;12.456;2022-12-18T03:04:57;96874;;;-13.7;87.8
56558;BME280;43358;50.356;12.456;2022-12-18T03:05:58;96872;;;-13.6;88.1
56558;BME280;43358;50.356;12.456;2022-12-18T03:07:04;96871;;;-13.6;87.9
56558;BME280;43358;50.356;12.456;2022-12-18T03:08:03;96871;;;-13.6;87.8
56558;BME280;43358;50.356;12.456;2022-12-18T03:09:04;96868;;;-13.7;87.7
56558;BME280;43358;50.356;12.456;2022-12-18T03:10:06;96866;;;-13.7;87.7
56558;BME280;43358;50.356;12.456;2022-12-18T03:11:08;96866;;;-13.7;87.8
56558;BME280;43358;50.356;12.456;2022-12-18T03:12:12;96861;;;-13.7;87.9
56558;BME280;43358;50.356;12.456;2022-12-18T03:13:13;96864;;;-13.7;87.8
56558;BME280;43358;50.356;12.456;2022-12-18T03:14:15;96863;;;-13.7;87.6
56558;BME280;43358;50.356;12.456;2022-12-18T03:15:16;96867;;;-13.7;87.8
56558;BME280;43358;50.356;12.456;2022-12-18T03:16:19;96866;;;-13.7;87.9
56558;BME280;43358;50.356;12.456;2022-12-18T03:17:20;96864;;;-13.7;87.3
56558;BME280;43358;50.356;12.456;2022-12-18T03:18:23;96866;;;-13.7;87.2
56558;BME280;43358;50.356;12.456;2022-12-18T03:19:24;96863;;;-13.7;87.6
56558;BME280;43358;50.356;12.456;2022-12-18T03:20:26;96864;;;-13.6;87.7
56558;BME280;43358;50.356;12.456;2022-12-18T03:21:29;96856;;;-13.5;87.8
56558;BME280;43358;50.356;12.456;2022-12-18T03:22:32;96858;;;-13.5;87.6
56558;BME280;43358;50.356;12.456;2022-12-18T03:23:34;96854;;;-13.5;87.2
56558;BME280;43358;50.356;12.456;2022-12-18T03:24:35;96854;;;-13.5;87
56558;BME280;43358;50.356;12.456;2022-12-18T03:25:38;96856;;;-13.6;86.7
56558;BME280;43358;50.356;12.456;2022-12-18T03:26:40;96851;;;-13.6;86.7
56558;BME280;43358;50.356;12.456;2022-12-18T03:27:43;96860;;;-13.6;87.1
56558;BME280;43358;50.356;12.456;2022-12-18T03:28:45;96855;;;-13.6;87.2
56558;BME280;43358;50.356;12.456;2022-12-18T03:29:47;96860;;;-13.6;87
56558;BME280;43358;50.356;12.456;2022-12-18T03:30:49;96858;;;-13.7;86.7
56558;BME280;43358;50.356;12.456;2022-12-18T03:31:51;96860;;;-13.8;86.5
56558;BME280;43358;50.356;12.456;2022-12-18T03:32:52;96858;;;-13.8;86.6
56558;BME280;43358;50.356;12.456;2022-12-18T03:33:54;96859;;;-13.9;86.6
56558;BME280;43358;50.356;12.456;2022-12-18T03:34:56;96862;;;-13.8;86.6
56558;BME280;43358;50.356;12.456;2022-12-18T03:35:58;96864;;;-13.9;86.6
56558;BME280;43358;50.356;12.456;2022-12-18T03:37:03;96864;;;-13.9;86.6
56558;BME280;43358;50.356;12.456;2022-12-18T03:38:02;96867;;;-13.9;86.6
56558;BME280;43358;50.356;12.456;2022-12-18T03:39:04;96866;;;-13.9;86.7
56558;BME280;43358;50.356;12.456;2022-12-18T03:40:06;96866;;;-13.9;87.1
56558;BME280;43358;50.356;12.456;2022-12-18T03:41:11;96866;;;-13.9;87.2
56558;BME280;43358;50.356;12.456;2022-12-18T03:42:12;96866;;;-13.9;87.3
56558;BME280;43358;50.356;12.456;2022-12-18T03:43:16;96862;;;-13.9;87.2
56558;BME280;43358;50.356;12.456;2022-12-18T03:44:17;96865;;;-13.9;87.2
56558;BME280;43358;50.356;12.456;2022-12-18T03:45:19;96862;;;-13.9;87.1
56558;BME280;43358;50.356;12.456;2022-12-18T03:46:22;96862;;;-13.9;87.3
56558;BME280;43358;50.356;12.456;2022-12-18T03:47:22;96865;;;-13.8;87.3
56558;BME280;43358;50.356;12.456;2022-12-18T03:48:25;96866;;;-13.8;87.3
56558;BME280;43358;50.356;12.456;2022-12-18T03:49:25;96867;;;-13.7;87.1
56558;BME280;43358;50.356;12.456;2022-12-18T03:50:29;96864;;;-13.7;86.6
56558;BME280;43358;50.356;12.456;2022-12-18T03:51:31;96866;;;-13.8;86.4
56558;BME280;43358;50.356;12.456;2022-12-18T03:52:33;96868;;;-13.8;86.4
56558;BME280;43358;50.356;12.456;2022-12-18T03:53:35;96867;;;-13.9;86.2
56558;BME280;43358;50.356;12.456;2022-12-18T03:54:35;96870;;;-13.9;86.2
56558;BME280;43358;50.356;12.456;2022-12-18T03:55:38;96872;;;-13.9;86.5
56558;BME280;43358;50.356;12.456;2022-12-18T03:56:42;96874;;;-14;86.6
56558;BME280;43358;50.356;12.456;2022-12-18T03:57:42;96874;;;-14;86.7
56558;BME280;43358;50.356;12.456;2022-12-18T03:58:44;96873;;;-14;86.8
56558;BME280;43358;50.356;12.456;2022-12-18T03:59:46;96874;;;-14;86.9
56558;BME280;43358;50.356;12.456;2022-12-18T04:00:48;96874;;;-14.1;87
56558;BME280;43358;50.356;12.456;2022-12-18T04:01:50;96875;;;-14.1;87
56558;BME280;43358;50.356;12.456;2022-12-18T04:02:52;96878;;;-14.1;87.4
56558;BME280;43358;50.356;12.456;2022-12-18T04:03:54;96882;;;-14.1;87.7
56558;BME280;43358;50.356;12.456;2022-12-18T04:04:57;96885;;;-14.1;87.8
56558;BME280;43358;50.356;12.456;2022-12-18T04:05:58;96883;;;-14.1;88
56558;BME280;43358;50.356;12.456;2022-12-18T04:08:02;96881;;;-14;88.2
56558;BME280;43358;50.356;12.456;2022-12-18T04:09:04;96887;;;-13.9;87.9
56558;BME280;43358;50.356;12.456;2022-12-18T04:10:07;96889;;;-14;87.1
56558;BME280;43358;50.356;12.456;2022-12-18T04:11:09;96890;;;-14;86.9
56558;BME280;43358;50.356;12.456;2022-12-18T04:12:12;96897;;;-14;86.7
56558;BME280;43358;50.356;12.456;2022-12-18T04:13:21;96900;;;-14;86.9
56558;BME280;43358;50.356;12.456;2022-12-18T04:14:16;96904;;;-14.1;86.8
56558;BME280;43358;50.356;12.456;2022-12-18T04:15:18;96905;;;-14.1;86.8
56558;BME280;43358;50.356;12.456;2022-12-18T04:16:20;96908;;;-14.2;86.8
56558;BME280;43358;50.356;12.456;2022-12-18T04:17:22;96908;;;-14.2;87
56558;BME280;43358;50.356;12.456;2022-12-18T04:18:24;96910;;;-14.2;87.1
56558;BME280;43358;50.356;12.456;2022-12-18T04:19:26;96908;;;-14.2;87.1
56558;BME280;43358;50.356;12.456;2022-12-18T04:20:28;96914;;;-14.2;87
56558;BME280;43358;50.356;12.456;2022-12-18T04:21:30;96911;;;-14.2;86.9
56558;BME280;43358;50.356;12.456;2022-12-18T04:22:32;96914;;;-14.2;87.3
56558;BME280;43358;50.356;12.456;2022-12-18T04:23:34;96910;;;-14.1;87.4
56558;BME280;43358;50.356;12.456;2022-12-18T04:24:36;96910;;;-14;87.3
56558;BME280;43358;50.356;12.456;2022-12-18T04:25:38;96910;;;-14.1;86.6
56558;BME280;43358;50.356;12.456;2022-12-18T04:26:42;96913;;;-14.1;86.4
56558;BME280;43358;50.356;12.456;2022-12-18T04:27:44;96914;;;-14.2;86.5
56558;BME280;43358;50.356;12.456;2022-12-18T04:28:46;96914;;;-14.2;86.5
56558;BME280;43358;50.356;12.456;2022-12-18T04:29:48;96917;;;-14.2;86.4
56558;BME280;43358;50.356;12.456;2022-12-18T04:30:50;96919;;;-14.3;86.4
56558;BME280;43358;50.356;12.456;2022-12-18T04:31:52;96916;;;-14.3;86.5
56558;BME280;43358;50.356;12.456;2022-12-18T04:32:54;96920;;;-14.3;86.8
56558;BME280;43358;50.356;12.456;2022-12-18T04:33:56;96917;;;-14.3;87
56558;BME280;43358;50.356;12.456;2022-12-18T04:34:58;96918;;;-14.3;87.2
56558;BME280;43358;50.356;12.456;2022-12-18T04:36:00;96916;;;-14.3;87.3
56558;BME280;43358;50.356;12.456;2022-12-18T04:37:02;96917;;;-14.3;87.5
56558;BME280;43358;50.356;12.456;2022-12-18T04:38:05;96918;;;-14.3;87.5
56558;BME280;43358;50.356;12.456;2022-12-18T04:39:06;96921;;;-14.3;87.3
56558;BME280;43358;50.356;12.456;2022-12-18T04:40:08;96918;;;-14.3;87.3
56558;BME280;43358;50.356;12.456;2022-12-18T04:41:13;96918;;;-14.3;87.3
56558;BME280;43358;50.356;12.456;2022-12-18T04:42:12;96917;;;-14.3;87.2
56558;BME280;43358;50.356;12.456;2022-12-18T04:43:14;96919;;;-14.4;87.2
56558;BME280;43358;50.356;12.456;2022-12-18T04:44:16;96917;;;-14.4;87.3
56558;BME280;43358;50.356;12.456;2022-12-18T04:45:18;96920;;;-14.4;87.3
56558;BME280;43358;50.356;12.456;2022-12-18T04:46:20;96921;;;-14.3;87.3
56558;BME280;43358;50.356;12.456;2022-12-18T04:47:22;96923;;;-14.3;87.4
56558;BME280;43358;50.356;12.456;2022-12-18T04:48:24;96924;;;-14.3;87.4
56558;BME280;43358;50.356;12.456;2022-12-18T04:49:27;96923;;;-14.3;87.4
56558;BME280;43358;50.356;12.456;2022-12-18T04:50:29;96924;;;-14.3;87.4
56558;BME280;43358;50.356;12.456;2022-12-18T04:51:31;96922;;;-14.3;87.4
56558;BME280;43358;50.356;12.456;2022-12-18T04:52:33;96925;;;-14.3;87.3
56558;BME280;43358;50.356;12.456;2022-12-18T04:53:35;96922;;;-14.3;87.3
56558;BME280;43358;50.356;12.456;2022-12-18T04:54:38;96922;;;-14.3;87.4
56558;BME280;43358;50.356;12.456;2022-12-18T04:55:42;96920;;;-14.3;87.5
56558;BME280;43358;50.356;12.456;2022-12-18T04:56:44;96918;;;-14.3;87.5
56558;BME280;43358;50.356;12.456;2022-12-18T04:57:46;96922;;;-14.3;87.5
56558;BME280;43358;50.356;12.456;2022-12-18T04:58:48;96918;;;-14.3;87.5
56558;BME280;43358;50.356;12.456;2022-12-18T04:59:50;96920;;;-14.2;87.6
56558;BME280;43358;50.356;12.456;2022-12-18T05:00:52;96925;;;-14.2;87.7
56558;BME280;43358;50.356;12.456;2022-12-18T05:01:54;96922;;;-14.2;87.9
56558;BME280;43358;50.356;12.456;2022-12-18T05:02:56;96922;;;-14.1;87.8
56558;BME280;43358;50.356;12.456;2022-12-18T05:03:58;96924;;;-14.1;87.4
56558;BME280;43358;50.356;12.456;2022-12-18T05:05:00;96923;;;-14.1;87.1
56558;BME280;43358;50.356;12.456;2022-12-18T05:06:02;96923;;;-14.2;86.8
56558;BME280;43358;50.356;12.456;2022-12-18T05:07:04;96924;;;-14.2;86.5
56558;BME280;43358;50.356;12.456;2022-12-18T05:08:06;96922;;;-14.3;86.1
56558;BME280;43358;50.356;12.456;2022-12-18T05:09:09;96925;;;-14.3;86
56558;BME280;43358;50.356;12.456;2022-12-18T05:10:11;96921;;;-14.4;86
56558;BME280;43358;50.356;12.456;2022-12-18T05:11:14;96922;;;-14.3;86
56558;BME280;43358;50.356;12.456;2022-12-18T05:12:15;96927;;;-14.4;86.1
56558;BME280;43358;50.356;12.456;2022-12-18T05:13:17;96927;;;-14.4;86.3
56558;BME280;43358;50.356;12.456;2022-12-18T05:14:19;96925;;;-14.4;86.4
56558;BME280;43358;50.356;12.456;2022-12-18T05:15:21;96928;;;-14.4;86.4
56558;BME280;43358;50.356;12.456;2022-12-18T05:16:23;96928;;;-14.4;86.4
56558;BME280;43358;50.356;12.456;2022-12-18T05:17:25;96929;;;-14.4;86.4
56558;BME280;43358;50.356;12.456;2022-12-18T05:18:27;96926;;;-14.4;86.3
56558;BME280;43358;50.356;12.456;2022-12-18T05:19:29;96927;;;-14.4;86.1
56558;BME280;43358;50.356;12.456;2022-12-18T05:20:31;96931;;;-14.4;86.1
56558;BME280;43358;50.356;12.456;2022-12-18T05:21:33;96928;;;-14.4;86.3
56558;BME280;43358;50.356;12.456;2022-12-18T05:22:35;96928;;;-14.5;86.3
56558;BME280;43358;50.356;12.456;2022-12-18T05:23:38;96928;;;-14.5;86.3
56558;BME280;43358;50.356;12.456;2022-12-18T05:24:40;96932;;;-14.5;86.4
56558;BME280;43358;50.356;12.456;2022-12-18T05:25:42;96932;;;-14.5;86.6
56558;BME280;43358;50.356;12.456;2022-12-18T05:26:44;96935;;;-14.5;86.6
56558;BME280;43358;50.356;12.456;2022-12-18T05:27:46;96933;;;-14.5;86.7
56558;BME280;43358;50.356;12.456;2022-12-18T05:28:48;96931;;;-14.5;86.7
56558;BME280;43358;50.356;12.456;2022-12-18T05:29:50;96935;;;-14.5;86.9
56558;BME280;43358;50.356;12.456;2022-12-18T05:30:52;96936;;;-14.5;87
56558;BME280;43358;50.356;12.456;2022-12-18T05:31:54;96934;;;-14.5;86.9
56558;BME280;43358;50.356;12.456;2022-12-18T05:32:56;96931;;;-14.5;86.9
56558;BME280;43358;50.356;12.456;2022-12-18T05:35:06;96937;;;-14.5;86.8
56558;BME280;43358;50.356;12.456;2022-12-18T05:36:07;96938;;;-14.5;86.7
56558;BME280;43358;50.356;12.456;2022-12-18T05:37:06;96939;;;-14.5;86.7
56558;BME280;43358;50.356;12.456;2022-12-18T05:38:06;96936;;;-14.5;86.8
56558;BME280;43358;50.356;12.456;2022-12-18T05:39:08;96934;;;-14.5;86.7
56558;BME280;43358;50.356;12.456;2022-12-18T05:40:10;96943;;;-14.5;86.6
56558;BME280;43358;50.356;12.456;2022-12-18T05:41:12;96944;;;-14.5;86.5
56558;BME280;43358;50.356;12.456;2022-12-18T05:42:14;96945;;;-14.5;86.5
56558;BME280;43358;50.356;12.456;2022-12-18T05:43:16;96951;;;-14.5;86.5
56558;BME280;43358;50.356;12.456;2022-12-18T05:44:18;96953;;;-14.6;86.5
56558;BME280;43358;50.356;12.456;2022-12-18T05:45:20;96953;;;-14.6;86.5
56558;BME280;43358;50.356;12.456;2022-12-18T05:46:22;96952;;;-14.6;86.6
56558;BME280;43358;50.356;12.456;2022-12-18T05:47:24;96953;;;-14.6;86.6
56558;BME280;43358;50.356;12.456;2022-12-18T05:48:26;96953;;;-14.6;86.7
56558;BME280;43358;50.356;12.456;2022-12-18T05:49:28;96959;;;-14.6;86.7
56558;BME280;43358;50.356;12.456;2022-12-18T05:50:30;96959;;;-14.6;86.6
56558;BME280;43358;50.356;12.456;2022-12-18T05:51:33;96961;;;-14.6;86.5